Time;durP1;ratioP1;P1;durP2;ratioP2;P2;SDS_P1;SDS_P2;PMS_P1;PMS_P2;Temp;Humidity;BMP_temperature;BMP_pressure;BME280_temperature;BME280_humidity;BME280_pressure;Samples;Min_cycle;Max_cycle;Signal;HPM_P1;HPM_P2
2022/08/28 00:01:44;;;;;;;11.65;4.35;;;19.60;99.90;;;;;;5012665;28;20021;-67
2022/08/28 00:05:08;;;;;;;16.23;4.57;;;19.60;99.90;;;;;;5012620;28;20037;-67
2022/08/28 00:08:14;;;;;;;7.03;4.40;;;19.60;99.90;;;;;;5012876;28;20480;-67
2022/08/28 00:15:24;;;;;;;5.72;4.20;;;19.60;99.90;;;;;;5012542;28;20036;-67
2022/08/28 00:18:47;;;;;;;9.90;5.25;;;19.60;99.90;;;;;;5012657;28;20049;-67
2022/08/28 00:21:53;;;;;;;10.75;4.57;;;19.60;99.90;;;;;;5012534;28;20057;-67
2022/08/28 00:24:58;;;;;;;6.18;4.20;;;19.60;99.90;;;;;;5012398;28;20048;-67
2022/08/28 00:31:46;;;;;;;8.50;4.45;;;19.60;99.90;;;;;;5012589;28;20045;-67
2022/08/28 00:34:51;;;;;;;9.40;4.15;;;19.60;99.90;;;;;;5010893;28;20049;-67
2022/08/28 00:37:56;;;;;;;6.95;4.60;;;19.50;99.90;;;;;;5012765;28;20396;-67
2022/08/28 00:41:02;;;;;;;9.85;3.92;;;19.50;99.90;;;;;;5012645;28;20048;-66
2022/08/28 00:44:27;;;;;;;6.97;4.90;;;19.50;99.90;;;;;;5011920;28;20045;-66
2022/08/28 00:54:18;;;;;;;11.73;3.97;;;19.40;99.90;;;;;;5011830;28;20053;-67
2022/08/28 01:01:17;;;;;;;8.30;4.28;;;19.40;99.90;;;;;;5012149;28;20049;-67
2022/08/28 01:04:23;;;;;;;6.00;4.70;;;19.30;99.90;;;;;;5011675;28;20041;-66
2022/08/28 01:08:24;;;;;;;9.85;4.32;;;19.30;99.90;;;;;;5012039;28;20098;-66
2022/08/28 01:11:49;;;;;;;8.88;4.88;;;19.10;99.90;;;;;;5011416;28;20041;-67
2022/08/28 01:15:16;;;;;;;22.33;5.13;;;19.00;99.90;;;;;;5011486;28;20508;-68
2022/08/28 01:18:21;;;;;;;5.78;4.57;;;18.90;99.90;;;;;;5012066;28;20216;-67
2022/08/28 01:21:38;;;;;;;8.73;4.60;;;18.80;99.90;;;;;;5012017;28;20053;-67
2022/08/28 01:24:44;;;;;;;7.72;5.13;;;18.70;99.90;;;;;;5011248;28;20056;-67
2022/08/28 01:27:48;;;;;;;8.15;5.38;;;18.60;99.90;;;;;;5011711;28;20049;-66
2022/08/28 01:34:15;;;;;;;6.13;5.07;;;18.30;99.90;;;;;;5011004;28;20049;-66
2022/08/28 01:37:19;;;;;;;7.82;4.68;;;18.40;99.90;;;;;;5011114;28;20040;-68
2022/08/28 01:40:28;;;;;;;6.28;4.47;;;18.40;99.90;;;;;;5011404;28;20057;-67
2022/08/28 01:46:57;;;;;;;9.95;4.50;;;18.30;99.90;;;;;;5010613;28;20044;-68
2022/08/28 01:50:20;;;;;;;10.63;4.60;;;18.20;99.90;;;;;;5011416;28;20045;-68
2022/08/28 01:53:26;;;;;;;8.98;5.45;;;18.10;99.90;;;;;;5010462;28;20044;-67
2022/08/28 01:56:49;;;;;;;9.50;4.90;;;18.10;99.90;;;;;;5011043;28;20045;-68
2022/08/28 02:00:13;;;;;;;8.85;5.45;;;18.10;99.90;;;;;;5010865;28;20033;-67
2022/08/28 02:03:18;;;;;;;13.00;6.10;;;18.10;99.90;;;;;;5010578;28;20045;-67
2022/08/28 02:06:41;;;;;;;10.10;5.57;;;18.10;99.90;;;;;;5011301;28;20045;-68
2022/08/28 02:10:06;;;;;;;10.35;6.50;;;18.00;99.90;;;;;;5011075;28;20044;-68
2022/08/28 02:13:11;;;;;;;10.68;5.80;;;18.00;99.90;;;;;;5010940;28;20044;-68
2022/08/28 02:16:34;;;;;;;10.05;6.10;;;18.00;99.90;;;;;;5010385;28;20074;-68
2022/08/28 02:19:39;;;;;;;11.43;5.78;;;18.00;99.90;;;;;;5010799;28;20052;-68
2022/08/28 02:22:43;;;;;;;10.90;6.22;;;18.00;99.90;;;;;;5009573;28;20052;-68
2022/08/28 02:25:48;;;;;;;7.82;5.72;;;18.10;99.90;;;;;;5010773;28;20040;-67
2022/08/28 02:28:53;;;;;;;8.60;5.95;;;18.10;99.90;;;;;;5010475;28;20048;-68
2022/08/28 02:35:21;;;;;;;10.25;6.68;;;18.10;99.90;;;;;;5009970;28;20084;-67
2022/08/28 02:38:25;;;;;;;8.48;5.93;;;18.10;99.90;;;;;;5010811;28;20045;-68
2022/08/28 02:41:30;;;;;;;8.50;5.68;;;18.20;99.90;;;;;;5010416;28;20048;-67
2022/08/28 02:44:34;;;;;;;11.07;5.93;;;18.10;99.90;;;;;;5009000;28;20532;-67
2022/08/28 02:47:40;;;;;;;10.63;5.95;;;18.10;99.90;;;;;;5009969;28;20504;-67
2022/08/28 02:50:45;;;;;;;11.50;5.93;;;18.00;99.90;;;;;;5010365;28;20053;-68
2022/08/28 02:53:51;;;;;;;9.48;5.80;;;18.00;99.90;;;;;;5009408;28;20044;-68
2022/08/28 02:56:55;;;;;;;6.93;5.50;;;18.00;99.90;;;;;;5010323;28;20041;-67
2022/08/28 03:00:01;;;;;;;9.10;6.30;;;18.00;99.90;;;;;;5014139;28;20388;-68
2022/08/28 03:03:05;;;;;;;10.55;5.93;;;18.00;99.90;;;;;;5014054;28;20041;-68
2022/08/28 03:06:11;;;;;;;7.97;5.13;;;18.00;99.90;;;;;;5014349;28;20061;-69
2022/08/28 03:09:15;;;;;;;8.38;5.30;;;18.00;99.90;;;;;;5014358;28;20053;-68
2022/08/28 03:12:22;;;;;;;7.78;5.68;;;18.00;99.90;;;;;;5013187;28;20069;-67
2022/08/28 03:15:28;;;;;;;11.68;5.60;;;18.00;99.90;;;;;;5013244;28;20044;-68
2022/08/28 03:18:32;;;;;;;10.38;5.00;;;18.10;99.90;;;;;;5013837;28;20504;-68
2022/08/28 03:21:54;;;;;;;8.57;5.20;;;18.10;99.90;;;;;;5014115;28;20491;-67
2022/08/28 03:24:59;;;;;;;7.10;5.18;;;18.20;99.90;;;;;;5013392;28;20385;-67
2022/08/28 03:28:03;;;;;;;8.10;5.43;;;18.20;99.90;;;;;;5012843;28;20117;-67
2022/08/28 03:31:32;;;;;;;11.57;4.85;;;18.20;99.90;;;;;;5013904;28;20037;-68
2022/08/28 03:34:36;;;;;;;9.70;4.80;;;18.10;99.90;;;;;;5012854;28;20048;-69
2022/08/28 03:37:59;;;;;;;7.20;5.47;;;18.10;99.90;;;;;;5013362;28;20049;-67
2022/08/28 03:44:37;;;;;;;8.75;5.90;;;18.10;99.90;;;;;;5013156;28;20053;-68
2022/08/28 03:48:02;;;;;;;14.52;6.05;;;18.00;99.90;;;;;;5013451;28;20053;-68
2022/08/28 03:51:15;;;;;;;10.77;6.50;;;17.80;99.90;;;;;;5013265;28;20511;-68
2022/08/28 03:54:38;;;;;;;11.52;6.55;;;17.70;99.90;;;;;;5012815;28;20091;-69
2022/08/28 03:57:42;;;;;;;7.95;5.32;;;17.70;99.90;;;;;;5013130;28;20049;-68
2022/08/28 04:00:49;;;;;;;9.45;5.93;;;17.70;99.90;;;;;;5013167;28;20041;-68
2022/08/28 04:14:39;;;;;;;8.20;5.65;;;17.50;99.90;;;;;;5012649;28;20053;-68
2022/08/28 04:17:42;;;;;;;13.85;6.57;;;17.50;99.90;;;;;;5012754;28;20053;-68
2022/08/28 04:20:57;;;;;;;8.25;5.80;;;17.50;99.90;;;;;;5013006;28;20041;-69
2022/08/28 04:24:01;;;;;;;9.35;5.95;;;17.50;99.90;;;;;;5012595;28;20049;-68
2022/08/28 04:27:24;;;;;;;8.75;6.03;;;17.40;99.90;;;;;;5013105;28;20053;-68
2022/08/28 04:30:27;;;;;;;14.32;7.13;;;17.30;99.90;;;;;;5011678;28;20057;-67
2022/08/28 04:33:31;;;;;;;16.98;8.60;;;17.30;99.90;;;;;;5012712;28;20053;-68
2022/08/28 04:36:36;;;;;;;15.57;9.65;;;17.20;99.90;;;;;;5012947;28;20045;-68
2022/08/28 04:39:41;;;;;;;68.85;14.05;;;17.10;99.90;;;;;;5013206;28;20044;-68
2022/08/28 04:42:46;;;;;;;19.58;13.40;;;17.00;99.90;;;;;;5013175;28;20388;-68
2022/08/28 04:45:50;;;;;;;27.83;13.25;;;17.00;99.90;;;;;;5010421;28;20053;-68
2022/08/28 04:48:55;;;;;;;19.90;12.30;;;17.00;99.90;;;;;;5012193;28;20033;-68
2022/08/28 04:52:18;;;;;;;15.45;9.93;;;17.00;99.90;;;;;;5012317;28;20037;-68
2022/08/28 04:55:22;;;;;;;15.20;10.73;;;17.20;99.90;;;;;;5011522;28;20045;-67
2022/08/28 04:58:47;;;;;;;26.23;10.88;;;17.20;99.90;;;;;;5012427;28;20040;-67
2022/08/28 05:05:40;;;;;;;19.17;11.48;;;17.40;99.90;;;;;;5011735;28;20040;-68
2022/08/28 05:08:44;;;;;;;21.23;11.50;;;17.50;99.90;;;;;;5012077;28;20045;-68
2022/08/28 05:11:48;;;;;;;22.92;10.85;;;17.60;99.90;;;;;;5012102;28;20146;-67
2022/08/28 05:15:12;;;;;;;45.47;11.93;;;17.60;99.90;;;;;;5011450;28;20048;-68
2022/08/28 05:18:20;;;;;;;16.63;10.90;;;17.70;99.90;;;;;;5012000;28;20072;-68
2022/08/28 05:21:24;;;;;;;20.83;10.23;;;17.70;99.90;;;;;;5011285;28;20045;-68
2022/08/28 05:24:28;;;;;;;15.55;10.52;;;17.80;99.90;;;;;;5011524;28;20049;-68
2022/08/28 05:27:32;;;;;;;15.00;10.02;;;18.10;99.90;;;;;;5011702;28;20044;-68
2022/08/28 05:30:38;;;;;;;11.40;8.52;;;18.50;99.90;;;;;;5011161;28;20532;-68
2022/08/28 05:33:43;;;;;;;15.02;9.07;;;19.10;99.90;;;;;;5011411;28;20066;-67
2022/08/28 05:36:47;;;;;;;10.85;8.75;;;19.80;99.90;;;;;;5011101;28;20049;-68
2022/08/28 05:39:51;;;;;;;7.90;6.05;;;21.60;99.90;;;;;;5011299;28;20393;-68
2022/08/28 05:43:15;;;;;;;8.75;5.15;;;23.70;99.90;;;;;;5011503;28;20080;-68
2022/08/28 05:46:21;;;;;;;11.05;3.97;;;25.90;99.90;;;;;;5011499;28;20037;-68
2022/08/28 05:49:45;;;;;;;7.05;3.95;;;27.70;99.90;;;;;;5011029;28;20045;-68
2022/08/28 05:53:08;;;;;;;8.38;3.83;;;28.80;99.90;;;;;;5011131;28;20049;-68
2022/08/28 05:56:32;;;;;;;5.30;3.00;;;29.90;99.90;;;;;;5011445;28;20037;-68
2022/08/28 05:59:36;;;;;;;7.50;3.42;;;30.40;99.90;;;;;;5011293;28;20037;-67
2022/08/28 06:02:41;;;;;;;6.88;2.70;;;30.20;99.90;;;;;;5011470;28;20041;-68
2022/08/28 06:05:45;;;;;;;4.40;2.78;;;29.30;99.90;;;;;;5010900;28;20045;-68
2022/08/28 06:08:50;;;;;;;5.88;3.00;;;29.00;99.90;;;;;;5010943;28;20421;-67
2022/08/28 06:12:01;;;;;;;5.50;2.60;;;28.40;99.90;;;;;;5010171;28;20038;-68
2022/08/28 06:15:06;;;;;;;;;;;27.40;99.90;;;;;;5010872;28;20499;-68
2022/08/28 06:18:11;;;;;;;7.75;2.80;;;26.80;99.90;;;;;;5010435;28;19956;-68
2022/08/28 06:21:15;;;;;;;3.45;2.78;;;26.70;99.90;;;;;;5010663;28;20045;-68
2022/08/28 06:24:19;;;;;;;8.38;2.55;;;27.50;99.90;;;;;;5010194;28;20053;-69
2022/08/28 06:27:42;;;;;;;6.05;2.67;;;27.60;99.90;;;;;;5010541;28;20052;-69
2022/08/28 06:31:06;;;;;;;4.57;2.75;;;26.90;99.90;;;;;;5009223;28;20208;-68
2022/08/28 06:34:11;;;;;;;4.20;2.65;;;26.40;99.90;;;;;;5009847;28;20057;-69
2022/08/28 06:37:34;;;;;;;9.38;2.58;;;26.10;99.90;;;;;;5010205;28;20068;-68
2022/08/28 06:40:56;;;;;;;4.13;2.60;;;27.50;99.90;;;;;;5010369;28;20045;-69
2022/08/28 06:47:22;;;;;;;7.90;2.60;;;28.30;99.90;;;;;;5009966;28;20057;-68
2022/08/28 06:50:27;;;;;;;4.50;2.40;;;27.20;99.90;;;;;;5010350;28;20037;-68
2022/08/28 06:54:09;;;;;;;7.43;2.70;;;27.00;99.90;;;;;;5009644;28;20045;-68
2022/08/28 06:57:13;;;;;;;8.15;3.33;;;27.30;99.90;;;;;;5009922;28;20409;-68
2022/08/28 07:00:17;;;;;;;4.75;2.33;;;27.30;99.90;;;;;;5010370;28;20041;-68
2022/08/28 07:03:21;;;;;;;5.90;2.65;;;27.70;99.90;;;;;;5009940;28;20044;-68
2022/08/28 07:07:02;;;;;;;5.03;2.70;;;27.00;99.90;;;;;;5010223;28;20504;-69
2022/08/28 07:10:25;;;;;;;4.95;2.40;;;26.80;99.90;;;;;;5009858;28;20057;-68
2022/08/28 07:13:29;;;;;;;5.97;2.78;;;26.40;99.90;;;;;;5010233;28;20045;-67
2022/08/28 07:16:53;;;;;;;7.18;2.53;;;27.20;99.90;;;;;;5009934;28;20049;-67
2022/08/28 07:20:16;;;;;;;4.00;2.40;;;27.40;99.90;;;;;;5010081;28;20053;-68
2022/08/28 07:23:20;;;;;;;4.25;2.67;;;28.00;99.90;;;;;;5009939;28;20037;-67
2022/08/28 07:26:25;;;;;;;2.53;2.20;;;27.80;99.90;;;;;;5010283;28;20052;-67
2022/08/28 07:29:47;;;;;;;3.95;2.35;;;28.30;99.90;;;;;;5010328;28;20053;-67
2022/08/28 07:33:10;;;;;;;5.68;2.97;;;29.50;99.90;;;;;;5008326;28;20054;-68
2022/08/28 07:36:17;;;;;;;3.88;2.25;;;30.40;99.90;;;;;;5010092;28;20499;-68
2022/08/28 07:39:22;;;;;;;6.32;2.10;;;29.90;99.90;;;;;;5010310;28;20045;-68
2022/08/28 07:45:57;;;;;;;6.15;2.35;;;29.00;99.90;;;;;;5013845;28;20037;-68
2022/08/28 07:52:26;;;;;;;5.75;2.40;;;30.00;99.90;;;;;;5013800;28;20048;-68
2022/08/28 07:55:50;;;;;;;4.00;2.28;;;31.50;99.90;;;;;;5013298;28;20049;-67
2022/08/28 07:58:56;;;;;;;5.60;2.25;;;32.50;99.90;;;;;;5013270;28;20044;-67
2022/08/28 08:02:00;;;;;;;5.75;2.40;;;32.00;99.80;;;;;;5013181;28;20054;-68
2022/08/28 08:05:05;;;;;;;3.30;1.65;;;31.10;99.90;;;;;;5013101;28;20109;-67
2022/08/28 08:08:27;;;;;;;4.47;1.90;;;30.90;99.90;;;;;;5013075;28;20045;-68
2022/08/28 08:11:32;;;;;;;3.78;2.33;;;31.50;99.90;;;;;;5013520;28;20041;-69
2022/08/28 08:14:37;;;;;;;6.63;2.20;;;29.80;99.90;;;;;;5012278;28;20053;-66
2022/08/28 08:17:42;;;;;;;3.88;1.92;;;30.40;99.90;;;;;;5012681;28;20061;-69
2022/08/28 08:20:46;;;;;;;5.82;2.10;;;32.20;99.90;;;;;;5013075;28;20041;-68
2022/08/28 08:23:50;;;;;;;8.18;2.33;;;33.20;98.60;;;;;;5012727;28;20106;-68
2022/08/28 08:27:13;;;;;;;4.35;2.17;;;34.40;97.50;;;;;;5013033;28;20520;-68
2022/08/28 08:30:17;;;;;;;6.93;2.28;;;35.30;96.20;;;;;;5013553;28;20485;-69
2022/08/28 08:33:21;;;;;;;4.75;1.92;;;35.00;95.00;;;;;;5012450;28;20048;-69
2022/08/28 08:37:04;;;;;;;3.70;2.13;;;34.00;96.00;;;;;;5012360;28;20049;-69
2022/08/28 08:40:14;;;;;;;6.38;2.00;;;32.90;97.00;;;;;;5012881;28;20041;-68
2022/08/28 08:43:37;;;;;;;3.70;1.60;;;32.40;96.90;;;;;;5011785;28;20393;-68
2022/08/28 08:47:07;;;;;;;3.10;2.08;;;31.60;97.10;;;;;;5012524;28;20048;-68
2022/08/28 08:50:25;;;;;;;5.32;2.13;;;33.40;97.40;;;;;;5012679;28;20049;-68
2022/08/28 08:53:53;;;;;;;3.65;1.70;;;33.50;96.40;;;;;;5011944;28;20056;-69
2022/08/28 08:57:17;;;;;;;4.82;2.03;;;35.20;94.80;;;;;;5012162;28;20048;-67
2022/08/28 09:00:22;;;;;;;9.18;1.98;;;34.30;95.10;;;;;;5012702;28;20049;-68
2022/08/28 09:03:37;;;;;;;5.60;2.20;;;33.30;96.20;;;;;;5012431;28;20045;-68
2022/08/28 09:06:48;;;;;;;4.30;2.22;;;32.30;96.70;;;;;;5012295;28;20053;-67
2022/08/28 09:09:56;;;;;;;4.55;2.30;;;31.80;98.10;;;;;;5012217;28;20388;-67
2022/08/28 09:13:41;;;;;;;3.42;1.80;;;32.00;98.30;;;;;;5011454;28;20037;-67
2022/08/28 09:16:46;;;;;;;4.50;2.08;;;35.40;95.70;;;;;;5011601;28;20473;-68
2022/08/28 09:20:12;;;;;;;3.65;1.92;;;35.40;94.30;;;;;;5011487;28;20524;-68
2022/08/28 09:23:20;;;;;;;5.70;2.20;;;35.10;95.00;;;;;;5011337;28;20049;-68
2022/08/28 09:27:08;;;;;;;5.35;1.98;;;33.70;95.60;;;;;;5011381;28;20542;-67
2022/08/28 09:30:31;;;;;;;3.13;2.15;;;32.70;96.70;;;;;;5011377;28;20511;-68
2022/08/28 09:33:41;;;;;;;4.47;2.10;;;31.60;97.30;;;;;;5011403;28;20049;-68
2022/08/28 09:37:07;;;;;;;6.78;2.25;;;32.50;96.60;;;;;;5011485;28;20068;-67
2022/08/28 09:43:55;;;;;;;4.53;1.90;;;36.20;94.80;;;;;;5010627;28;20041;-68
2022/08/28 09:47:18;;;;;;;5.68;1.52;;;39.40;91.70;;;;;;5011006;28;20057;-68
2022/08/28 09:50:28;;;;;;;2.65;1.95;;;37.80;92.80;;;;;;5011041;28;20053;-68
2022/08/28 09:53:35;;;;;;;4.07;1.70;;;38.20;91.80;;;;;;5010545;28;20060;-68
2022/08/28 09:56:59;;;;;;;5.15;1.67;;;40.60;90.40;;;;;;5010963;28;20048;-68
2022/08/28 10:03:34;;;;;;;4.28;1.98;;;43.50;84.60;;;;;;5010631;28;20037;-68
2022/08/28 10:07:22;;;;;;;3.13;1.58;;;41.70;84.90;;;;;;5010713;28;20052;-68
2022/08/28 10:10:49;;;;;;;2.30;1.40;;;42.40;84.40;;;;;;5010629;28;20049;-68
2022/08/28 10:14:31;;;;;;;2.67;1.35;;;40.80;84.50;;;;;;5010600;28;20053;-68
2022/08/28 10:18:18;;;;;;;4.68;1.50;;;39.70;87.50;;;;;;5010451;28;20500;-68
2022/08/28 10:21:27;;;;;;;2.30;1.50;;;42.00;84.00;;;;;;5010678;28;20040;-68
2022/08/28 10:24:46;;;;;;;2.20;1.43;;;37.70;86.00;;;;;;5010500;28;20045;-68
2022/08/28 10:28:12;;;;;;;3.13;1.60;;;37.90;89.00;;;;;;5010800;28;20041;-68
2022/08/28 10:31:43;;;;;;;3.67;1.83;;;40.10;86.10;;;;;;5009904;28;20053;-68
2022/08/28 10:35:21;;;;;;;4.30;1.77;;;38.60;87.20;;;;;;5009905;28;20049;-68
2022/08/28 10:38:43;;;;;;;2.53;1.40;;;36.90;88.10;;;;;;5010675;28;20062;-68
2022/08/28 10:45:33;;;;;;;2.60;1.40;;;38.40;85.00;;;;;;5008331;28;20492;-68
2022/08/28 10:48:39;;;;;;;3.15;1.40;;;39.40;83.60;;;;;;5010656;28;20045;-68
2022/08/28 10:52:15;;;;;;;2.25;1.20;;;42.00;80.50;;;;;;5010649;28;20053;-68
2022/08/28 10:55:42;;;;;;;;;;;44.00;78.60;;;;;;5010307;28;20045;-68
2022/08/28 10:59:25;;;;;;;3.25;1.80;;;40.80;74.00;;;;;;5009841;28;19950;-68
2022/08/28 11:02:29;;;;;;;5.85;1.38;;;43.40;76.80;;;;;;5010614;28;20040;-68
2022/08/28 11:05:40;;;;;;;3.85;1.35;;;42.10;77.80;;;;;;5010139;28;20037;-68
2022/08/28 11:08:51;;;;;;;2.33;1.52;;;40.80;77.80;;;;;;5010377;28;20044;-68
2022/08/28 11:12:00;;;;;;;2.28;1.25;;;40.90;79.40;;;;;;5010614;28;20056;-68
2022/08/28 11:15:58;;;;;;;2.13;1.23;;;42.10;77.60;;;;;;5009892;28;20511;-68
2022/08/28 11:19:33;;;;;;;3.75;1.25;;;43.30;75.10;;;;;;4977527;28;20048;-68
2022/08/28 11:22:43;;;;;;;1.98;1.40;;;44.50;74.40;;;;;;5013878;28;20053;-68
2022/08/28 11:25:47;;;;;;;2.17;1.40;;;40.90;75.70;;;;;;5014132;28;20511;-68
2022/08/28 11:28:52;;;;;;;1.60;1.25;;;42.70;73.20;;;;;;5013748;28;20044;-68
2022/08/28 11:32:38;;;;;;;2.60;1.15;;;44.10;71.90;;;;;;5012951;28;20104;-68
2022/08/28 11:35:49;;;;;;;3.17;1.10;;;43.20;73.10;;;;;;5017393;28;20387;-68
2022/08/28 11:39:11;;;;;;;3.55;1.48;;;44.30;72.70;;;;;;5013595;28;20049;-68
2022/08/28 11:42:33;;;;;;;4.47;1.45;;;41.60;73.60;;;;;;5013703;28;20052;-68
2022/08/28 11:45:45;;;;;;;2.85;1.30;;;41.00;73.40;;;;;;5013308;28;20044;-67
2022/08/28 11:49:27;;;;;;;3.75;1.50;;;39.40;75.70;;;;;;5013214;28;20082;-67
2022/08/28 11:57:16;;;;;;;2.97;1.80;;;34.40;84.50;;;;;;4973747;28;20393;-68
2022/08/28 12:00:45;;;;;;;3.95;1.83;;;33.70;86.80;;;;;;5013849;28;20061;-67
2022/08/28 12:04:16;;;;;;;5.20;2.17;;;33.00;89.20;;;;;;5013307;28;20041;-67
2022/08/28 12:07:46;;;;;;;4.90;2.00;;;33.00;90.30;;;;;;5013748;28;20045;-68
2022/08/28 12:14:25;;;;;;;6.20;2.50;;;32.00;93.00;;;;;;5012531;28;20040;-67
2022/08/28 12:21:23;;;;;;;3.55;2.25;;;32.50;94.20;;;;;;5013071;28;20049;-68
2022/08/28 12:24:51;;;;;;;5.03;2.13;;;33.10;93.80;;;;;;5012687;28;20402;-67
2022/08/28 12:35:01;;;;;;;2.97;1.80;;;37.70;89.50;;;;;;5012554;28;20418;-67
2022/08/28 12:38:25;;;;;;;2.28;1.33;;;38.10;86.20;;;;;;5012521;28;20045;-67
2022/08/28 12:41:48;;;;;;;2.15;1.55;;;38.20;85.40;;;;;;5012547;28;20049;-68
2022/08/28 12:48:24;;;;;;;3.72;1.60;;;37.20;83.60;;;;;;5012725;28;20052;-67
2022/08/28 12:51:34;;;;;;;4.43;1.80;;;36.80;85.90;;;;;;5012197;28;20504;-67
2022/08/28 12:54:57;;;;;;;4.60;2.08;;;36.90;84.70;;;;;;5011413;28;20096;-67
2022/08/28 12:58:01;;;;;;;2.55;1.67;;;36.90;85.70;;;;;;5012119;28;20053;-67
2022/08/28 13:01:14;;;;;;;4.68;1.70;;;36.70;86.50;;;;;;5012450;28;20045;-68
2022/08/28 13:04:36;;;;;;;6.63;1.80;;;36.60;85.60;;;;;;5011772;28;20049;-67
2022/08/28 13:07:47;;;;;;;3.17;1.90;;;36.50;87.00;;;;;;5011823;28;20056;-67
2022/08/28 13:10:51;;;;;;;3.03;2.08;;;35.40;87.60;;;;;;5011766;28;20049;-67
2022/08/28 13:13:55;;;;;;;5.68;2.35;;;35.00;87.90;;;;;;5011626;28;20061;-67
2022/08/28 13:16:59;;;;;;;4.60;1.60;;;35.10;87.40;;;;;;5011936;28;20049;-67
2022/08/28 13:20:23;;;;;;;2.08;1.70;;;35.50;86.90;;;;;;5011779;28;20392;-67
2022/08/28 13:23:28;;;;;;;7.25;2.05;;;35.70;86.60;;;;;;5011759;28;20037;-67
2022/08/28 13:26:36;;;;;;;5.13;1.83;;;35.80;87.20;;;;;;5012519;28;20048;-67
2022/08/28 13:30:00;;;;;;;12.95;2.38;;;35.50;88.20;;;;;;5011492;28;20048;-67
2022/08/28 13:33:21;;;;;;;6.05;2.38;;;34.60;87.60;;;;;;5011631;28;20507;-69
2022/08/28 13:36:25;;;;;;;4.10;1.75;;;34.10;89.30;;;;;;5011926;28;20062;-68
2022/08/28 13:46:45;;;;;;;5.90;1.60;;;34.80;89.40;;;;;;5011500;28;20065;-69
2022/08/28 13:53:15;;;;;;;3.97;2.00;;;35.80;90.30;;;;;;5011248;28;20037;-69
2022/08/28 13:56:19;;;;;;;5.40;2.22;;;35.60;90.40;;;;;;5011081;28;20401;-70
2022/08/28 13:59:25;;;;;;;4.78;2.00;;;35.30;90.60;;;;;;5010796;28;20041;-69
2022/08/28 14:06:49;;;;;;;3.35;1.98;;;34.60;90.40;;;;;;5011181;28;20041;-68
2022/08/28 14:09:53;;;;;;;3.80;1.80;;;34.10;91.80;;;;;;5011040;28;20037;-68
2022/08/28 14:13:16;;;;;;;3.80;2.13;;;33.70;92.60;;;;;;5010861;28;20403;-71
2022/08/28 14:16:20;;;;;;;6.28;2.40;;;33.40;91.90;;;;;;5010955;28;20041;-68
2022/08/28 14:19:43;;;;;;;3.25;2.15;;;33.60;92.90;;;;;;5010654;28;20045;-68
2022/08/28 14:22:47;;;;;;;4.53;2.15;;;33.80;92.50;;;;;;5010822;28;20044;-69
2022/08/28 14:25:52;;;;;;;3.03;2.00;;;33.80;92.20;;;;;;5010924;28;20041;-69
2022/08/28 14:29:16;;;;;;;6.88;2.40;;;33.90;92.20;;;;;;5010608;28;20389;-68
2022/08/28 14:32:20;;;;;;;5.88;2.20;;;34.20;92.20;;;;;;5009717;28;20052;-68
2022/08/28 14:35:43;;;;;;;4.03;1.80;;;34.10;92.00;;;;;;5010403;28;20503;-68
2022/08/28 14:38:49;;;;;;;4.88;2.33;;;34.10;91.80;;;;;;5010482;28;20049;-69
2022/08/28 14:41:53;;;;;;;5.00;2.40;;;34.30;91.80;;;;;;5010661;28;20404;-68
2022/08/28 14:48:20;;;;;;;3.45;2.35;;;34.80;91.50;;;;;;5010371;28;20405;-68
2022/08/28 14:55:09;;;;;;;6.22;2.47;;;34.20;92.40;;;;;;5010019;28;20040;-68
2022/08/28 14:58:16;;;;;;;6.18;2.25;;;34.20;93.10;;;;;;5010471;28;20513;-69
2022/08/28 15:01:39;;;;;;;4.70;2.20;;;34.20;92.90;;;;;;5010240;28;20401;-69
2022/08/28 15:04:44;;;;;;;7.40;2.40;;;33.80;92.40;;;;;;5010058;28;20480;-69
2022/08/28 15:08:08;;;;;;;5.97;2.47;;;33.50;92.70;;;;;;5010147;28;20045;-68
2022/08/28 15:11:34;;;;;;;5.00;2.60;;;33.30;93.60;;;;;;5009932;28;20051;-69
2022/08/28 15:18:01;;;;;;;3.38;2.70;;;32.80;94.20;;;;;;5009672;28;20040;-70
2022/08/28 15:21:23;;;;;;;2.90;2.20;;;32.60;94.10;;;;;;5010014;28;20503;-71
2022/08/28 15:24:30;;;;;;;2.75;2.38;;;32.50;94.60;;;;;;5009679;28;20389;-68
2022/08/28 15:27:35;;;;;;;4.95;2.55;;;32.60;94.70;;;;;;5009942;28;20393;-69
2022/08/28 15:30:58;;;;;;;7.53;2.70;;;32.60;94.50;;;;;;5009131;28;20041;-69
2022/08/28 15:34:09;;;;;;;2.88;2.25;;;32.90;94.60;;;;;;5009696;28;20049;-68
2022/08/28 15:44:00;;;;;;;6.80;2.70;;;33.50;93.70;;;;;;5009537;28;20497;-69
2022/08/28 15:47:07;;;;;;;3.78;2.10;;;33.50;93.40;;;;;;5009146;28;20523;-70
2022/08/28 15:50:13;;;;;;;3.08;2.10;;;33.50;93.80;;;;;;5010076;28;20300;-69
2022/08/28 15:53:18;;;;;;;5.90;2.30;;;33.70;93.20;;;;;;5009190;28;20531;-68
2022/08/28 15:56:22;;;;;;;2.92;2.13;;;33.80;93.00;;;;;;4998163;28;20389;-68
2022/08/28 15:59:26;;;;;;;5.18;2.10;;;33.60;93.20;;;;;;5010048;28;20049;-68
2022/08/28 16:02:30;;;;;;;2.95;1.75;;;33.30;93.40;;;;;;5010031;28;20412;-68
2022/08/28 16:05:36;;;;;;;6.82;2.00;;;32.60;90.60;;;;;;5011956;28;20045;-69
2022/08/28 16:08:41;;;;;;;6.00;1.80;;;31.50;90.60;;;;;;5013149;28;20048;-68
2022/08/28 16:11:46;;;;;;;3.67;1.80;;;30.30;92.20;;;;;;5013090;28;20496;-69
2022/08/28 16:14:51;;;;;;;5.47;2.50;;;29.30;94.20;;;;;;5012817;28;20060;-69
2022/08/28 16:17:55;;;;;;;4.00;2.50;;;28.20;96.60;;;;;;5013154;28;20388;-69
2022/08/28 16:20:59;;;;;;;2.00;1.63;;;28.00;96.90;;;;;;5012927;28;20037;-68
2022/08/28 16:24:03;;;;;;;3.28;1.70;;;28.00;95.50;;;;;;5012401;28;20041;-70
2022/08/28 16:27:30;;;;;;;3.00;1.50;;;27.90;95.90;;;;;;5013117;28;20500;-69
2022/08/28 16:30:37;;;;;;;4.28;1.50;;;27.70;94.80;;;;;;5011726;28;20025;-68
2022/08/28 16:34:01;;;;;;;3.70;1.25;;;27.40;94.50;;;;;;5012358;28;20049;-69
2022/08/28 16:37:24;;;;;;;1.83;1.10;;;27.40;94.70;;;;;;5012417;28;20041;-69
2022/08/28 16:40:32;;;;;;;1.70;1.00;;;26.60;94.30;;;;;;5012922;28;20041;-69
2022/08/28 16:57:54;;;;;;;4.55;1.65;;;25.70;94.60;;;;;;5013532;28;21005;-69
2022/08/28 17:01:20;;;;;;;4.35;1.70;;;25.50;94.90;;;;;;5013473;28;20492;-68
2022/08/28 17:04:24;;;;;;;3.75;1.60;;;25.50;95.00;;;;;;5011806;28;20495;-68
2022/08/28 17:07:47;;;;;;;3.15;1.23;;;25.60;95.30;;;;;;5012959;28;20049;-68
2022/08/28 17:10:51;;;;;;;3.17;1.38;;;25.10;95.30;;;;;;5013094;28;20058;-67
2022/08/28 17:13:56;;;;;;;3.83;1.20;;;24.80;95.70;;;;;;5012576;28;20500;-67
2022/08/28 17:17:19;;;;;;;5.35;1.45;;;24.60;96.10;;;;;;5012213;28;20060;-68
2022/08/28 17:23:54;;;;;;;4.93;1.00;;;24.40;96.90;;;;;;5002215;28;20045;-68
2022/08/28 17:26:59;;;;;;;2.50;1.02;;;24.20;97.60;;;;;;5012597;28;20389;-67
2022/08/28 17:30:03;;;;;;;2.53;1.35;;;24.10;98.20;;;;;;5012160;28;20048;-68
2022/08/28 17:33:26;;;;;;;5.18;1.55;;;24.00;99.00;;;;;;5011013;28;20054;-67
2022/08/28 17:37:09;;;;;;;2.95;1.42;;;23.90;99.70;;;;;;5012578;28;20053;-68
2022/08/28 17:40:32;;;;;;;2.40;1.48;;;24.00;99.90;;;;;;5012324;28;20267;-67
2022/08/28 17:43:37;;;;;;;3.38;1.60;;;24.00;99.90;;;;;;5011860;28;20053;-68
2022/08/28 17:47:00;;;;;;;3.08;1.60;;;24.00;99.90;;;;;;5012433;28;20049;-67
2022/08/28 17:50:06;;;;;;;4.82;1.75;;;23.90;99.90;;;;;;5012107;28;20663;-67
2022/08/28 17:53:11;;;;;;;3.15;1.73;;;23.70;99.90;;;;;;5012156;28;20056;-67
2022/08/28 17:56:15;;;;;;;3.50;1.80;;;23.50;99.90;;;;;;5011761;28;20499;-68
2022/08/28 17:59:21;;;;;;;2.42;1.42;;;23.30;99.90;;;;;;5011166;28;20394;-67
2022/08/28 18:02:26;;;;;;;1.95;1.42;;;22.90;99.90;;;;;;5011840;28;20267;-67
2022/08/28 18:05:30;;;;;;;4.68;2.30;;;22.70;99.90;;;;;;5011938;28;20052;-67
2022/08/28 18:08:53;;;;;;;3.08;1.55;;;22.50;99.90;;;;;;5011789;28;20048;-67
2022/08/28 18:11:57;;;;;;;7.97;2.00;;;22.50;99.90;;;;;;5011764;28;20385;-68
2022/08/28 18:15:02;;;;;;;4.47;1.70;;;22.40;99.90;;;;;;5011355;28;20053;-67
2022/08/28 18:18:06;;;;;;;4.82;1.70;;;22.50;99.90;;;;;;5011753;28;20044;-66
2022/08/28 18:21:12;;;;;;;4.65;1.40;;;22.50;99.90;;;;;;5011577;28;20061;-67
2022/08/28 18:24:16;;;;;;;2.85;1.63;;;22.60;99.90;;;;;;5011163;28;20508;-67
2022/08/28 18:27:39;;;;;;;7.53;1.52;;;22.60;99.90;;;;;;5011384;28;20499;-67
2022/08/28 18:34:08;;;;;;;2.45;1.38;;;22.60;99.90;;;;;;5010345;28;20049;-67
2022/08/28 18:37:12;;;;;;;3.63;1.50;;;22.40;99.90;;;;;;5011641;28;20048;-67
2022/08/28 18:40:16;;;;;;;2.28;1.80;;;22.30;99.90;;;;;;5010575;28;20424;-67
2022/08/28 18:43:21;;;;;;;4.50;1.73;;;22.00;99.90;;;;;;5011133;28;20041;-66
2022/08/28 18:46:44;;;;;;;5.90;1.80;;;21.80;99.90;;;;;;5011566;28;20053;-67
2022/08/28 18:49:48;;;;;;;2.70;1.23;;;21.60;99.90;;;;;;5010692;28;20057;-67
2022/08/28 18:52:54;;;;;;;4.03;1.90;;;21.50;99.90;;;;;;5010444;28;20045;-67
2022/08/28 18:55:58;;;;;;;2.72;1.70;;;21.50;99.90;;;;;;5010107;28;20064;-67
2022/08/28 18:59:02;;;;;;;3.53;1.98;;;21.60;99.90;;;;;;4988019;28;20504;-67
2022/08/28 19:02:06;;;;;;;3.35;1.90;;;21.60;99.90;;;;;;5010806;28;20272;-67
2022/08/28 19:05:11;;;;;;;2.72;1.73;;;21.60;99.90;;;;;;5011150;28;20049;-68